sensor_id;sensor_type;location;lat;lon;timestamp;pressure;altitude;pressure_sealevel;temperature;humidity
5298;BME280;14738;42.668;23.250;2022-07-18T00:01:42;48300.97;;;-141.90;45.01
5298;BME280;14738;42.668;23.250;2022-07-18T00:04:07;48304.94;;;-141.90;44.77
5298;BME280;14738;42.668;23.250;2022-07-18T00:06:33;48308.91;;;-141.90;45.10
5298;BME280;14738;42.668;23.250;2022-07-18T00:08:58;48306.91;;;-141.90;44.53
5298;BME280;14738;42.668;23.250;2022-07-18T00:11:24;48300.97;;;-141.90;45.13
5298;BME280;14738;42.668;23.250;2022-07-18T00:13:49;48283.09;;;-141.90;45.13
5298;BME280;14738;42.668;23.250;2022-07-18T00:16:16;48298.97;;;-141.90;44.48
5298;BME280;14738;42.668;23.250;2022-07-18T00:18:43;48283.09;;;-141.90;44.59
5298;BME280;14738;42.668;23.250;2022-07-18T00:21:08;48291.03;;;-141.90;45.18
5298;BME280;14738;42.668;23.250;2022-07-18T00:23:34;48324.78;;;-141.90;45.28
5298;BME280;14738;42.668;23.250;2022-07-18T00:25:59;48316.84;;;-141.90;44.83
5298;BME280;14738;42.668;23.250;2022-07-18T00:28:25;48287.06;;;-141.90;44.76
5298;BME280;14738;42.668;23.250;2022-07-18T00:30:50;48295.00;;;-141.90;43.87
5298;BME280;14738;42.668;23.250;2022-07-18T00:33:16;48283.09;;;-141.90;44.72
5298;BME280;14738;42.668;23.250;2022-07-18T00:35:41;48308.91;;;-141.90;43.57
5298;BME280;14738;42.668;23.250;2022-07-18T00:38:06;48291.03;;;-141.90;43.95
5298;BME280;14738;42.668;23.250;2022-07-18T00:40:32;48295.00;;;-141.90;42.95
5298;BME280;14738;42.668;23.250;2022-07-18T00:42:58;48289.06;;;-141.90;42.43
5298;BME280;14738;42.668;23.250;2022-07-18T00:45:23;48310.91;;;-141.90;43.19
5298;BME280;14738;42.668;23.250;2022-07-18T00:47:49;48316.84;;;-141.90;42.85
5298;BME280;14738;42.668;23.250;2022-07-18T00:50:18;48287.06;;;-141.90;44.12
5298;BME280;14738;42.668;23.250;2022-07-18T00:52:44;48298.97;;;-141.90;42.85
5298;BME280;14738;42.668;23.250;2022-07-18T00:55:10;48289.06;;;-141.90;44.39
5298;BME280;14738;42.668;23.250;2022-07-18T00:57:37;48306.91;;;-141.90;43.58
5298;BME280;14738;42.668;23.250;2022-07-18T01:00:09;48295.00;;;-141.90;42.47
5298;BME280;14738;42.668;23.250;2022-07-18T01:02:53;48310.91;;;-141.90;41.90
5298;BME280;14738;42.668;23.250;2022-07-18T01:05:19;48306.91;;;-141.90;41.05
5298;BME280;14738;42.668;23.250;2022-07-18T01:07:45;48326.78;;;-141.90;40.43
5298;BME280;14738;42.668;23.250;2022-07-18T01:10:11;48291.03;;;-141.90;40.80
5298;BME280;14738;42.668;23.250;2022-07-18T01:12:36;48314.88;;;-141.90;40.61
5298;BME280;14738;42.668;23.250;2022-07-18T01:15:03;48279.13;;;-141.90;41.00
5298;BME280;14738;42.668;23.250;2022-07-18T01:17:29;48297.00;;;-141.90;41.39
5298;BME280;14738;42.668;23.250;2022-07-18T01:19:54;48312.88;;;-141.90;41.44
5298;BME280;14738;42.668;23.250;2022-07-18T01:22:20;48310.91;;;-141.90;42.87
5298;BME280;14738;42.668;23.250;2022-07-18T01:24:46;48310.91;;;-141.90;41.94
5298;BME280;14738;42.668;23.250;2022-07-18T01:27:19;48306.91;;;-141.90;41.46
5298;BME280;14738;42.668;23.250;2022-07-18T01:29:46;48300.97;;;-141.90;41.76
5298;BME280;14738;42.668;23.250;2022-07-18T01:32:13;48298.97;;;-141.90;41.77
5298;BME280;14738;42.668;23.250;2022-07-18T01:34:39;48306.91;;;-141.90;41.36
5298;BME280;14738;42.668;23.250;2022-07-18T01:37:05;48279.13;;;-141.90;41.95
5298;BME280;14738;42.668;23.250;2022-07-18T01:39:31;48312.88;;;-141.90;42.88
5298;BME280;14738;42.668;23.250;2022-07-18T01:42:05;48316.84;;;-141.90;41.91
5298;BME280;14738;42.668;23.250;2022-07-18T01:44:32;48273.19;;;-141.90;42.74
5298;BME280;14738;42.668;23.250;2022-07-18T01:46:58;48318.84;;;-141.90;41.38
5298;BME280;14738;42.668;23.250;2022-07-18T01:49:24;48261.25;;;-141.90;42.08
5298;BME280;14738;42.668;23.250;2022-07-18T01:51:52;48283.09;;;-141.90;42.04
5298;BME280;14738;42.668;23.250;2022-07-18T01:54:26;48279.13;;;-141.90;42.72
5298;BME280;14738;42.668;23.250;2022-07-18T01:56:52;48287.06;;;-141.90;42.46
5298;BME280;14738;42.668;23.250;2022-07-18T01:59:18;48287.06;;;-141.90;42.45
5298;BME280;14738;42.668;23.250;2022-07-18T02:01:44;48293.03;;;-141.90;41.76
5298;BME280;14738;42.668;23.250;2022-07-18T02:04:09;48302.94;;;-141.90;42.25
5298;BME280;14738;42.668;23.250;2022-07-18T02:06:35;48302.94;;;-141.90;41.56
5298;BME280;14738;42.668;23.250;2022-07-18T02:09:00;48310.91;;;-141.90;41.59
5298;BME280;14738;42.668;23.250;2022-07-18T02:11:26;48279.13;;;-141.90;42.51
5298;BME280;14738;42.668;23.250;2022-07-18T02:13:51;48314.88;;;-141.90;42.66
5298;BME280;14738;42.668;23.250;2022-07-18T02:16:17;48283.09;;;-141.90;42.41
5298;BME280;14738;42.668;23.250;2022-07-18T02:18:43;48287.06;;;-141.90;42.64
5298;BME280;14738;42.668;23.250;2022-07-18T02:21:08;48318.84;;;-141.90;42.40
5298;BME280;14738;42.668;23.250;2022-07-18T02:23:34;48281.13;;;-141.90;42.57
5298;BME280;14738;42.668;23.250;2022-07-18T02:26:00;48283.09;;;-141.90;42.29
5298;BME280;14738;42.668;23.250;2022-07-18T02:28:26;48287.06;;;-141.90;41.47
5298;BME280;14738;42.668;23.250;2022-07-18T02:30:52;48259.28;;;-141.90;40.70
5298;BME280;14738;42.668;23.250;2022-07-18T02:33:17;48306.91;;;-141.90;42.82
5298;BME280;14738;42.668;23.250;2022-07-18T02:35:43;48289.06;;;-141.90;42.85
5298;BME280;14738;42.668;23.250;2022-07-18T02:38:09;48279.13;;;-141.90;42.71
5298;BME280;14738;42.668;23.250;2022-07-18T02:40:35;48326.78;;;-141.90;44.22
5298;BME280;14738;42.668;23.250;2022-07-18T02:43:00;48304.94;;;-141.90;43.28
5298;BME280;14738;42.668;23.250;2022-07-18T02:45:26;48302.94;;;-141.90;44.27
5298;BME280;14738;42.668;23.250;2022-07-18T02:47:52;48322.81;;;-141.90;43.57
5298;BME280;14738;42.668;23.250;2022-07-18T02:50:18;48322.81;;;-141.90;43.68
5298;BME280;14738;42.668;23.250;2022-07-18T02:52:44;48310.91;;;-141.90;45.51
5298;BME280;14738;42.668;23.250;2022-07-18T02:55:10;48298.97;;;-141.90;45.36
5298;BME280;14738;42.668;23.250;2022-07-18T02:57:37;48281.13;;;-141.90;44.72
5298;BME280;14738;42.668;23.250;2022-07-18T03:00:07;48289.06;;;-141.90;45.21
5298;BME280;14738;42.668;23.250;2022-07-18T03:02:34;48287.06;;;-141.90;45.72
5298;BME280;14738;42.668;23.250;2022-07-18T03:04:59;48267.22;;;-141.90;43.72
5298;BME280;14738;42.668;23.250;2022-07-18T03:07:24;48277.16;;;-141.90;44.26
5298;BME280;14738;42.668;23.250;2022-07-18T03:09:50;48310.91;;;-141.90;45.33
5298;BME280;14738;42.668;23.250;2022-07-18T03:12:16;48295.00;;;-141.90;46.30
5298;BME280;14738;42.668;23.250;2022-07-18T03:14:42;48314.88;;;-141.90;45.11
5298;BME280;14738;42.668;23.250;2022-07-18T03:17:07;48267.22;;;-141.90;44.91
5298;BME280;14738;42.668;23.250;2022-07-18T03:19:33;48281.13;;;-141.90;45.68
5298;BME280;14738;42.668;23.250;2022-07-18T03:21:59;48271.19;;;-141.90;46.03
5298;BME280;14738;42.668;23.250;2022-07-18T03:24:24;48306.91;;;-141.90;46.24
5298;BME280;14738;42.668;23.250;2022-07-18T03:26:50;48275.16;;;-141.90;45.86
5298;BME280;14738;42.668;23.250;2022-07-18T03:29:16;48267.22;;;-141.90;45.55
5298;BME280;14738;42.668;23.250;2022-07-18T03:31:41;48279.13;;;-141.90;46.35
5298;BME280;14738;42.668;23.250;2022-07-18T03:34:06;48308.91;;;-141.90;45.06
5298;BME280;14738;42.668;23.250;2022-07-18T03:36:32;48302.94;;;-141.90;45.94
5298;BME280;14738;42.668;23.250;2022-07-18T03:38:57;48314.88;;;-141.90;45.06
5298;BME280;14738;42.668;23.250;2022-07-18T03:41:23;48302.94;;;-141.90;44.03
5298;BME280;14738;42.668;23.250;2022-07-18T03:43:48;48287.06;;;-141.90;43.06
5298;BME280;14738;42.668;23.250;2022-07-18T03:46:14;48318.84;;;-141.90;43.77
5298;BME280;14738;42.668;23.250;2022-07-18T03:48:39;48304.94;;;-141.90;42.91
5298;BME280;14738;42.668;23.250;2022-07-18T03:51:05;48308.91;;;-141.90;41.99
5298;BME280;14738;42.668;23.250;2022-07-18T03:53:31;48342.66;;;-141.90;41.70
5298;BME280;14738;42.668;23.250;2022-07-18T03:55:57;48283.09;;;-141.90;41.14
5298;BME280;14738;42.668;23.250;2022-07-18T03:58:22;48318.84;;;-141.90;40.31
5298;BME280;14738;42.668;23.250;2022-07-18T04:00:48;48314.88;;;-141.90;40.52
5298;BME280;14738;42.668;23.250;2022-07-18T04:03:13;48291.03;;;-141.90;40.39
5298;BME280;14738;42.668;23.250;2022-07-18T04:05:39;48334.72;;;-141.90;40.00
5298;BME280;14738;42.668;23.250;2022-07-18T04:08:04;48326.78;;;-141.90;39.66
5298;BME280;14738;42.668;23.250;2022-07-18T04:10:30;48350.59;;;-141.90;39.79
5298;BME280;14738;42.668;23.250;2022-07-18T04:12:56;48342.66;;;-141.90;39.92
5298;BME280;14738;42.668;23.250;2022-07-18T04:15:23;48338.69;;;-141.90;38.26
5298;BME280;14738;42.668;23.250;2022-07-18T04:17:49;48332.72;;;-141.90;38.21
5298;BME280;14738;42.668;23.250;2022-07-18T04:20:16;48350.59;;;-141.90;37.58
5298;BME280;14738;42.668;23.250;2022-07-18T04:22:50;48332.72;;;-141.90;37.60
5298;BME280;14738;42.668;23.250;2022-07-18T04:25:18;48342.66;;;-141.90;38.38
5298;BME280;14738;42.668;23.250;2022-07-18T04:27:44;48358.53;;;-141.90;35.66
5298;BME280;14738;42.668;23.250;2022-07-18T04:30:09;48342.66;;;-141.90;36.55
5298;BME280;14738;42.668;23.250;2022-07-18T04:32:35;48298.97;;;-141.90;37.49
5298;BME280;14738;42.668;23.250;2022-07-18T04:35:01;48332.72;;;-141.90;37.30
5298;BME280;14738;42.668;23.250;2022-07-18T04:37:29;48346.63;;;-141.90;36.90
5298;BME280;14738;42.668;23.250;2022-07-18T04:39:55;48350.59;;;-141.90;37.10
5298;BME280;14738;42.668;23.250;2022-07-18T04:42:21;48356.56;;;-141.90;35.80
5298;BME280;14738;42.668;23.250;2022-07-18T04:44:46;48344.63;;;-141.90;36.22
5298;BME280;14738;42.668;23.250;2022-07-18T04:47:11;48314.88;;;-141.90;36.55
5298;BME280;14738;42.668;23.250;2022-07-18T04:49:37;48326.78;;;-141.90;37.62
5298;BME280;14738;42.668;23.250;2022-07-18T04:52:02;48394.28;;;-141.90;37.02
5298;BME280;14738;42.668;23.250;2022-07-18T04:54:28;48378.38;;;-141.90;37.25
5298;BME280;14738;42.668;23.250;2022-07-18T04:56:54;48372.44;;;-141.90;36.11
5298;BME280;14738;42.668;23.250;2022-07-18T04:59:19;48370.44;;;-141.90;35.97
5298;BME280;14738;42.668;23.250;2022-07-18T05:01:45;48390.31;;;-141.90;34.56
5298;BME280;14738;42.668;23.250;2022-07-18T05:04:10;48400.22;;;-141.90;35.00
5298;BME280;14738;42.668;23.250;2022-07-18T05:06:35;48368.47;;;-141.90;32.93
5298;BME280;14738;42.668;23.250;2022-07-18T05:09:01;48386.34;;;-141.90;32.50
5298;BME280;14738;42.668;23.250;2022-07-18T05:11:26;48386.34;;;-141.90;33.18
5298;BME280;14738;42.668;23.250;2022-07-18T05:13:52;48398.25;;;-141.90;33.56
5298;BME280;14738;42.668;23.250;2022-07-18T05:16:17;48402.22;;;-141.90;30.74
5298;BME280;14738;42.668;23.250;2022-07-18T05:18:43;48378.38;;;-141.90;31.38
5298;BME280;14738;42.668;23.250;2022-07-18T05:21:08;48406.19;;;-141.90;32.37
5298;BME280;14738;42.668;23.250;2022-07-18T05:23:33;48424.06;;;-141.90;30.95
5298;BME280;14738;42.668;23.250;2022-07-18T05:25:59;48439.94;;;-141.90;28.43
5298;BME280;14738;42.668;23.250;2022-07-18T05:28:25;48445.88;;;-141.90;28.22
5298;BME280;14738;42.668;23.250;2022-07-18T05:30:51;48441.91;;;-141.90;27.62
5298;BME280;14738;42.668;23.250;2022-07-18T05:33:19;48418.09;;;-141.90;28.64
5298;BME280;14738;42.668;23.250;2022-07-18T05:35:44;48426.03;;;-141.90;25.62
5298;BME280;14738;42.668;23.250;2022-07-18T05:38:10;48445.88;;;-141.90;26.92
5298;BME280;14738;42.668;23.250;2022-07-18T05:40:35;48430.00;;;-141.90;26.39
5298;BME280;14738;42.668;23.250;2022-07-18T05:43:01;48437.94;;;-141.90;26.77
5298;BME280;14738;42.668;23.250;2022-07-18T05:45:27;48447.88;;;-141.90;24.58
5298;BME280;14738;42.668;23.250;2022-07-18T05:47:53;48491.56;;;-141.90;24.06
5298;BME280;14738;42.668;23.250;2022-07-18T05:50:19;48509.41;;;-141.90;24.83
5298;BME280;14738;42.668;23.250;2022-07-18T05:52:44;48499.50;;;-141.90;22.92
5298;BME280;14738;42.668;23.250;2022-07-18T05:55:10;48517.34;;;-141.90;22.56
5298;BME280;14738;42.668;23.250;2022-07-18T05:57:36;48497.50;;;-141.90;24.97
5298;BME280;14738;42.668;23.250;2022-07-18T06:00:07;48531.25;;;-141.90;22.83
5298;BME280;14738;42.668;23.250;2022-07-18T06:02:33;48568.97;;;-141.90;23.04
5298;BME280;14738;42.668;23.250;2022-07-18T06:04:59;48646.41;;;-141.90;21.20
5298;BME280;14738;42.668;23.250;2022-07-18T06:07:25;48707.94;;;-141.90;20.18
5298;BME280;14738;42.668;23.250;2022-07-18T06:09:50;48781.41;;;-141.90;18.56
5298;BME280;14738;42.668;23.250;2022-07-18T06:12:16;48924.38;;;-141.90;19.74
5298;BME280;14738;42.668;23.250;2022-07-18T06:14:41;48950.19;;;-141.90;18.32
5298;BME280;14738;42.668;23.250;2022-07-18T06:17:07;49017.69;;;-141.90;17.02
5298;BME280;14738;42.668;23.250;2022-07-18T06:19:33;49150.72;;;-141.90;16.41
5298;BME280;14738;42.668;23.250;2022-07-18T06:21:58;49132.84;;;-141.90;14.89
5298;BME280;14738;42.668;23.250;2022-07-18T06:24:25;49105.03;;;-141.90;15.76
5298;BME280;14738;42.668;23.250;2022-07-18T06:26:50;49041.50;;;-141.90;16.75
5298;BME280;14738;42.668;23.250;2022-07-18T06:29:16;49099.09;;;-141.90;16.08
5298;BME280;14738;42.668;23.250;2022-07-18T06:31:42;49128.88;;;-141.90;15.29
5298;BME280;14738;42.668;23.250;2022-07-18T06:34:08;49124.91;;;-141.90;15.06
5298;BME280;14738;42.668;23.250;2022-07-18T06:36:33;49120.94;;;-141.90;14.27
5298;BME280;14738;42.668;23.250;2022-07-18T06:38:59;49075.25;;;-141.90;14.84
5298;BME280;14738;42.668;23.250;2022-07-18T06:41:24;48995.84;;;-141.90;15.56
5298;BME280;14738;42.668;23.250;2022-07-18T06:43:50;48882.66;;;-141.90;16.27
5298;BME280;14738;42.668;23.250;2022-07-18T06:46:15;48922.38;;;-141.90;15.78
5298;BME280;14738;42.668;23.250;2022-07-18T06:48:41;48916.41;;;-141.90;16.07
5298;BME280;14738;42.668;23.250;2022-07-18T06:51:07;49049.44;;;-141.90;16.45
5298;BME280;14738;42.668;23.250;2022-07-18T06:53:34;49180.50;;;-141.90;15.87
5298;BME280;14738;42.668;23.250;2022-07-18T06:56:00;49077.25;;;-141.90;15.96
5298;BME280;14738;42.668;23.250;2022-07-18T06:58:28;49039.53;;;-141.90;15.34
5298;BME280;14738;42.668;23.250;2022-07-18T07:00:56;49140.78;;;-141.90;15.82
5298;BME280;14738;42.668;23.250;2022-07-18T07:03:22;48993.84;;;-141.90;15.43
5298;BME280;14738;42.668;23.250;2022-07-18T07:05:47;49027.59;;;-141.90;15.00
5298;BME280;14738;42.668;23.250;2022-07-18T07:08:13;49009.75;;;-141.90;15.60
5298;BME280;14738;42.668;23.250;2022-07-18T07:10:39;49029.59;;;-141.90;15.22
5298;BME280;14738;42.668;23.250;2022-07-18T07:13:05;49017.69;;;-141.90;16.65
5298;BME280;14738;42.668;23.250;2022-07-18T07:15:30;49099.09;;;-141.90;14.64
5298;BME280;14738;42.668;23.250;2022-07-18T07:17:56;49025.63;;;-141.90;15.22
5298;BME280;14738;42.668;23.250;2022-07-18T07:20:21;49075.25;;;-141.90;16.27
5298;BME280;14738;42.668;23.250;2022-07-18T07:22:52;49033.56;;;-141.90;15.70
5298;BME280;14738;42.668;23.250;2022-07-18T07:25:18;48985.91;;;-141.90;16.42
5298;BME280;14738;42.668;23.250;2022-07-18T07:27:45;48890.59;;;-141.90;16.96
5298;BME280;14738;42.668;23.250;2022-07-18T07:30:12;48854.88;;;-141.90;17.83
5298;BME280;14738;42.668;23.250;2022-07-18T07:32:39;48781.41;;;-141.90;18.62
5298;BME280;14738;42.668;23.250;2022-07-18T07:35:06;48737.72;;;-141.90;18.57
5298;BME280;14738;42.668;23.250;2022-07-18T07:37:35;48753.63;;;-141.90;17.76
5298;BME280;14738;42.668;23.250;2022-07-18T07:40:01;48743.69;;;-141.90;17.20
5298;BME280;14738;42.668;23.250;2022-07-18T07:42:26;48767.50;;;-141.90;19.22
5298;BME280;14738;42.668;23.250;2022-07-18T07:44:52;48745.69;;;-141.90;18.28
5298;BME280;14738;42.668;23.250;2022-07-18T07:47:17;48703.97;;;-141.90;17.21
5298;BME280;14738;42.668;23.250;2022-07-18T07:49:43;48644.41;;;-141.90;17.11
5298;BME280;14738;42.668;23.250;2022-07-18T07:52:08;48678.16;;;-141.90;16.62
5298;BME280;14738;42.668;23.250;2022-07-18T07:54:35;48672.22;;;-141.90;18.70
5298;BME280;14738;42.668;23.250;2022-07-18T07:57:01;48658.31;;;-141.90;18.18
5298;BME280;14738;42.668;23.250;2022-07-18T07:59:26;48668.25;;;-141.90;17.46
5298;BME280;14738;42.668;23.250;2022-07-18T08:01:51;48648.38;;;-141.90;19.12
5298;BME280;14738;42.668;23.250;2022-07-18T08:04:17;48646.41;;;-141.90;17.94
5298;BME280;14738;42.668;23.250;2022-07-18T08:06:42;48594.78;;;-141.90;16.92
5298;BME280;14738;42.668;23.250;2022-07-18T08:09:08;48610.66;;;-141.90;18.31
5298;BME280;14738;42.668;23.250;2022-07-18T08:11:33;48632.50;;;-141.90;18.91
5298;BME280;14738;42.668;23.250;2022-07-18T08:13:59;48644.41;;;-141.90;16.85
5298;BME280;14738;42.668;23.250;2022-07-18T08:16:25;48590.81;;;-141.90;17.28
5298;BME280;14738;42.668;23.250;2022-07-18T08:18:50;48630.53;;;-141.90;19.38
5298;BME280;14738;42.668;23.250;2022-07-18T08:21:16;48634.50;;;-141.90;18.75
5298;BME280;14738;42.668;23.250;2022-07-18T08:23:41;48608.69;;;-141.90;18.28
5298;BME280;14738;42.668;23.250;2022-07-18T08:26:08;48642.44;;;-141.90;17.47
5298;BME280;14738;42.668;23.250;2022-07-18T08:28:33;48654.34;;;-141.90;19.65
5298;BME280;14738;42.668;23.250;2022-07-18T08:30:59;48604.72;;;-141.90;16.77
5298;BME280;14738;42.668;23.250;2022-07-18T08:33:24;48636.47;;;-141.90;17.61
5298;BME280;14738;42.668;23.250;2022-07-18T08:35:49;48580.88;;;-141.90;17.88
5298;BME280;14738;42.668;23.250;2022-07-18T08:38:15;48567.00;;;-141.90;19.33
5298;BME280;14738;42.668;23.250;2022-07-18T08:40:41;48596.78;;;-141.90;17.25
5298;BME280;14738;42.668;23.250;2022-07-18T08:43:07;48626.56;;;-141.90;19.66
5298;BME280;14738;42.668;23.250;2022-07-18T08:45:32;48608.69;;;-141.90;17.30
5298;BME280;14738;42.668;23.250;2022-07-18T08:47:58;48620.59;;;-141.90;18.30
5298;BME280;14738;42.668;23.250;2022-07-18T08:50:23;48588.84;;;-141.90;17.80
5298;BME280;14738;42.668;23.250;2022-07-18T08:52:49;48620.59;;;-141.90;18.77
5298;BME280;14738;42.668;23.250;2022-07-18T08:55:15;48576.91;;;-141.90;17.88
5298;BME280;14738;42.668;23.250;2022-07-18T08:57:41;48608.69;;;-141.90;17.30
5298;BME280;14738;42.668;23.250;2022-07-18T09:00:09;48596.78;;;-141.90;17.77
5298;BME280;14738;42.668;23.250;2022-07-18T09:02:35;48561.03;;;-141.90;17.99
5298;BME280;14738;42.668;23.250;2022-07-18T09:05:02;48602.72;;;-141.90;19.67
5298;BME280;14738;42.668;23.250;2022-07-18T09:07:32;48644.41;;;-141.90;18.13
5298;BME280;14738;42.668;23.250;2022-07-18T09:09:59;48612.66;;;-141.90;17.27
5298;BME280;14738;42.668;23.250;2022-07-18T09:12:27;48622.59;;;-141.90;18.48
5298;BME280;14738;42.668;23.250;2022-07-18T09:14:53;48604.72;;;-141.90;17.87
5298;BME280;14738;42.668;23.250;2022-07-18T09:17:26;48567.00;;;-141.90;18.62
5298;BME280;14738;42.668;23.250;2022-07-18T09:20:08;48600.75;;;-141.90;19.85
5298;BME280;14738;42.668;23.250;2022-07-18T09:22:36;48612.66;;;-141.90;18.44
5298;BME280;14738;42.668;23.250;2022-07-18T09:27:33;48598.75;;;-141.90;18.97
5298;BME280;14738;42.668;23.250;2022-07-18T09:30:19;48588.84;;;-141.90;20.26
5298;BME280;14738;42.668;23.250;2022-07-18T09:33:11;48580.88;;;-141.90;19.42
5298;BME280;14738;42.668;23.250;2022-07-18T09:38:11;48592.81;;;-141.90;20.71
5298;BME280;14738;42.668;23.250;2022-07-18T09:40:40;48576.91;;;-141.90;19.61
5298;BME280;14738;42.668;23.250;2022-07-18T09:43:08;48568.97;;;-141.90;19.24
5298;BME280;14738;42.668;23.250;2022-07-18T09:45:45;48596.78;;;-141.90;20.28
5298;BME280;14738;42.668;23.250;2022-07-18T09:48:17;48580.88;;;-141.90;20.29
5298;BME280;14738;42.668;23.250;2022-07-18T09:50:49;48580.88;;;-141.90;19.56
5298;BME280;14738;42.668;23.250;2022-07-18T09:53:23;48612.66;;;-141.90;20.77
5298;BME280;14738;42.668;23.250;2022-07-18T09:55:54;48640.44;;;-141.90;20.30
5298;BME280;14738;42.668;23.250;2022-07-18T09:58:25;48626.56;;;-141.90;21.05
5298;BME280;14738;42.668;23.250;2022-07-18T10:00:52;48604.72;;;-141.90;19.50
5298;BME280;14738;42.668;23.250;2022-07-18T10:03:19;48630.53;;;-141.90;20.02
5298;BME280;14738;42.668;23.250;2022-07-18T10:05:46;48602.72;;;-141.90;19.32
5298;BME280;14738;42.668;23.250;2022-07-18T10:08:14;48618.59;;;-141.90;20.20
5298;BME280;14738;42.668;23.250;2022-07-18T10:10:42;48592.81;;;-141.90;19.52
5298;BME280;14738;42.668;23.250;2022-07-18T10:13:08;48572.94;;;-141.90;19.11
5298;BME280;14738;42.668;23.250;2022-07-18T10:15:36;48576.91;;;-141.90;18.99
5298;BME280;14738;42.668;23.250;2022-07-18T10:18:05;48580.88;;;-141.90;20.18
5298;BME280;14738;42.668;23.250;2022-07-18T10:20:45;48574.94;;;-141.90;20.18
5298;BME280;14738;42.668;23.250;2022-07-18T10:23:21;48578.91;;;-141.90;19.88
5298;BME280;14738;42.668;23.250;2022-07-18T10:31:36;48640.44;;;-141.90;20.93
5298;BME280;14738;42.668;23.250;2022-07-18T10:36:39;48596.78;;;-141.90;19.34
5298;BME280;14738;42.668;23.250;2022-07-18T10:41:32;48565.00;;;-141.90;20.28
5298;BME280;14738;42.668;23.250;2022-07-18T10:43:58;48622.59;;;-141.90;19.91
5298;BME280;14738;42.668;23.250;2022-07-18T10:46:23;48576.91;;;-141.90;18.99
5298;BME280;14738;42.668;23.250;2022-07-18T10:48:49;48604.72;;;-141.90;20.34
5298;BME280;14738;42.668;23.250;2022-07-18T10:51:16;48628.53;;;-141.90;20.14
5298;BME280;14738;42.668;23.250;2022-07-18T10:59:21;48622.59;;;-141.90;20.30
5298;BME280;14738;42.668;23.250;2022-07-18T11:01:53;48574.94;;;-141.90;19.99
5298;BME280;14738;42.668;23.250;2022-07-18T11:09:48;48592.81;;;-141.90;20.33
5298;BME280;14738;42.668;23.250;2022-07-18T11:20:26;48584.84;;;-141.90;21.14
5298;BME280;14738;42.668;23.250;2022-07-18T11:22:52;48618.59;;;-141.90;21.04
5298;BME280;14738;42.668;23.250;2022-07-18T11:25:18;48612.66;;;-141.90;20.58
5298;BME280;14738;42.668;23.250;2022-07-18T11:27:44;48604.72;;;-141.90;20.10
5298;BME280;14738;42.668;23.250;2022-07-18T11:30:15;48602.72;;;-141.90;20.49
5298;BME280;14738;42.668;23.250;2022-07-18T11:32:41;48588.84;;;-141.90;20.19
5298;BME280;14738;42.668;23.250;2022-07-18T11:35:07;48628.53;;;-141.90;21.42
5298;BME280;14738;42.668;23.250;2022-07-18T11:37:35;48610.66;;;-141.90;21.31
5298;BME280;14738;42.668;23.250;2022-07-18T11:40:08;48576.91;;;-141.90;20.29
5298;BME280;14738;42.668;23.250;2022-07-18T11:42:41;48572.94;;;-141.90;20.78
5298;BME280;14738;42.668;23.250;2022-07-18T11:45:08;48568.97;;;-141.90;21.67
5298;BME280;14738;42.668;23.250;2022-07-18T11:47:59;48614.63;;;-141.90;21.19
5298;BME280;14738;42.668;23.250;2022-07-18T11:50:36;48622.59;;;-141.90;20.72
5298;BME280;14738;42.668;23.250;2022-07-18T11:53:01;48614.63;;;-141.90;21.35
5298;BME280;14738;42.668;23.250;2022-07-18T11:55:38;48594.78;;;-141.90;21.63
5298;BME280;14738;42.668;23.250;2022-07-18T11:58:14;48588.84;;;-141.90;20.82
5298;BME280;14738;42.668;23.250;2022-07-18T12:00:42;48622.59;;;-141.90;21.39
5298;BME280;14738;42.668;23.250;2022-07-18T12:03:19;48543.16;;;-141.90;21.26
5298;BME280;14738;42.668;23.250;2022-07-18T12:08:33;48624.56;;;-141.90;20.69
5298;BME280;14738;42.668;23.250;2022-07-18T12:11:30;48604.72;;;-141.90;21.14
5298;BME280;14738;42.668;23.250;2022-07-18T12:14:00;48608.69;;;-141.90;21.16
5298;BME280;14738;42.668;23.250;2022-07-18T12:16:38;48622.59;;;-141.90;21.91
5298;BME280;14738;42.668;23.250;2022-07-18T12:19:11;48596.78;;;-141.90;21.18
5298;BME280;14738;42.668;23.250;2022-07-18T12:21:39;48624.56;;;-141.90;20.53
5298;BME280;14738;42.668;23.250;2022-07-18T12:30:09;48636.47;;;-141.90;19.98
5298;BME280;14738;42.668;23.250;2022-07-18T12:38:03;48590.81;;;-141.90;19.35
5298;BME280;14738;42.668;23.250;2022-07-18T12:43:35;48594.78;;;-141.90;20.00
5298;BME280;14738;42.668;23.250;2022-07-18T12:46:08;48600.75;;;-141.90;19.34
5298;BME280;14738;42.668;23.250;2022-07-18T12:48:35;48622.59;;;-141.90;19.74
5298;BME280;14738;42.668;23.250;2022-07-18T12:51:06;48630.53;;;-141.90;20.66
5298;BME280;14738;42.668;23.250;2022-07-18T12:53:34;48618.59;;;-141.90;20.69
5298;BME280;14738;42.668;23.250;2022-07-18T12:56:00;48618.59;;;-141.90;21.18
5298;BME280;14738;42.668;23.250;2022-07-18T12:58:25;48644.41;;;-141.90;21.03
5298;BME280;14738;42.668;23.250;2022-07-18T13:00:51;48608.69;;;-141.90;20.98
5298;BME280;14738;42.668;23.250;2022-07-18T13:03:16;48644.41;;;-141.90;21.75
5298;BME280;14738;42.668;23.250;2022-07-18T13:05:42;48636.47;;;-141.90;22.14
5298;BME280;14738;42.668;23.250;2022-07-18T13:08:08;48626.56;;;-141.90;21.89
5298;BME280;14738;42.668;23.250;2022-07-18T13:10:35;48646.41;;;-141.90;22.18
5298;BME280;14738;42.668;23.250;2022-07-18T13:13:03;48610.66;;;-141.90;22.48
5298;BME280;14738;42.668;23.250;2022-07-18T13:15:29;48630.53;;;-141.90;22.51
5298;BME280;14738;42.668;23.250;2022-07-18T13:17:54;48620.59;;;-141.90;22.47
5298;BME280;14738;42.668;23.250;2022-07-18T13:20:20;48596.78;;;-141.90;22.55
5298;BME280;14738;42.668;23.250;2022-07-18T13:22:45;48634.50;;;-141.90;22.55
5298;BME280;14738;42.668;23.250;2022-07-18T13:25:11;48612.66;;;-141.90;22.75
5298;BME280;14738;42.668;23.250;2022-07-18T13:27:37;48590.81;;;-141.90;22.38
5298;BME280;14738;42.668;23.250;2022-07-18T13:30:05;48588.84;;;-141.90;22.75
5298;BME280;14738;42.668;23.250;2022-07-18T13:32:30;48598.75;;;-141.90;22.68